Terminal Aerodrome Forecast
Issued by NWS Shreveport, LA

Home | Current Version | Previous Version | Text Only | Print | Product List | Glossary On
Versions: 1 2 3 4 5 6 7 8 9 10 11 12 13 14
000
FTUS44 KSHV 032322
TAFLFK
TAF
KLFK 032322Z 0400/0424 VRB03KT P6SM FEW060 SCT250
      TEMPO 0408/0412 BKN005
     FM041200 00000KT P6SM BKN004
     FM041400 15004KT P6SM BKN015
     FM041600 16005KT P6SM BKN030
     FM041700 16006KT P6SM SCT040 SCT250=

USA.gov is the U.S. government's official web portal to all federal, state and local government web resources and services.